createdAt,value
2019-02-15T00:00:52.202Z,101613.10
2019-02-15T00:03:33.918Z,101621.31
2019-02-15T00:06:04.108Z,101630.13
2019-02-15T00:08:33.496Z,101621.31
2019-02-15T00:11:02.911Z,101619.32
2019-02-15T00:13:35.175Z,101629.97
2019-02-15T00:16:04.564Z,101621.00
2019-02-15T00:18:52.897Z,101627.47
2019-02-15T00:21:32.970Z,101631.47
2019-02-15T00:24:21.510Z,101634.62
2019-02-15T00:26:51.177Z,101625.16
2019-02-15T00:29:20.939Z,101636.98
2019-02-15T00:31:50.491Z,101629.00
2019-02-15T00:34:20.124Z,101629.84
2019-02-15T00:36:49.619Z,101629.34
2019-02-15T00:39:19.161Z,101629.70
2019-02-15T00:41:48.575Z,101625.70
2019-02-15T00:44:17.982Z,101613.73
2019-02-15T00:47:06.312Z,101622.05
2019-02-15T00:50:13.807Z,101629.41
2019-02-15T00:55:49.737Z,101623.44
2019-02-15T00:58:38.008Z,101617.28
2019-02-15T01:01:26.335Z,101622.11
2019-02-15T01:04:13.956Z,101613.28
2019-02-15T01:07:07.245Z,101608.11
2019-02-15T01:09:55.532Z,101603.92
2019-02-15T01:12:28.802Z,101608.26
2019-02-15T01:15:18.639Z,101599.78
2019-02-15T01:18:07.064Z,101603.13
2019-02-15T01:23:31.804Z,101612.64
2019-02-15T01:29:08.561Z,101597.66
2019-02-15T01:34:37.954Z,101589.19
2019-02-15T01:37:27.405Z,101592.34
2019-02-15T01:40:15.912Z,101587.02
2019-02-15T01:42:52.185Z,101597.02
2019-02-15T01:45:40.831Z,101596.50
2019-02-15T01:48:21.513Z,101592.50
2019-02-15T01:50:54.105Z,101595.51
2019-02-15T01:53:23.637Z,101610.00
2019-02-15T01:55:53.546Z,101614.00
2019-02-15T02:01:16.814Z,101618.83
2019-02-15T02:03:46.715Z,101613.16
2019-02-15T02:06:35.100Z,101613.16
2019-02-15T02:09:15.796Z,101615.48
2019-02-15T02:11:45.666Z,101619.30
2019-02-15T02:14:15.190Z,101613.16
2019-02-15T02:16:47.766Z,101610.50
2019-02-15T02:19:36.209Z,101612.67
2019-02-15T02:22:05.703Z,101614.48
2019-02-15T02:24:35.083Z,101612.81
2019-02-15T02:27:23.502Z,101609.00
2019-02-15T02:29:53.057Z,101605.16
2019-02-15T02:32:22.814Z,101613.14
2019-02-15T02:35:11.191Z,101618.81
2019-02-15T02:37:40.754Z,101613.14
2019-02-15T02:40:10.191Z,101611.66
2019-02-15T02:42:39.655Z,101622.75
2019-02-15T02:45:09.202Z,101625.41
2019-02-15T02:47:41.472Z,101619.05
2019-02-15T02:50:10.928Z,101624.87
2019-02-15T02:52:40.320Z,101619.54
2019-02-15T02:55:09.796Z,101620.52
2019-02-15T03:00:14.334Z,101633.83
2019-02-15T03:02:55.343Z,101624.17
2019-02-15T03:05:25.020Z,101619.00
2019-02-15T03:07:54.503Z,101624.31
2019-02-15T03:10:24.006Z,101626.63
2019-02-15T03:12:56.758Z,101620.47
2019-02-15T03:15:26.191Z,101623.13
2019-02-15T03:17:55.642Z,101630.63
2019-02-15T03:20:31.264Z,101630.45
2019-02-15T03:23:09.067Z,101643.62
2019-02-15T03:25:40.146Z,101626.47
2019-02-15T03:28:09.524Z,101621.00
2019-02-15T03:30:38.934Z,101620.81
2019-02-15T03:33:08.592Z,101616.31
2019-02-15T03:38:47.056Z,101618.91
2019-02-15T03:41:38.434Z,101628.03
2019-02-15T03:44:07.914Z,101628.03
2019-02-15T03:46:37.314Z,101630.69
2019-02-15T03:49:06.834Z,101637.84
2019-02-15T03:51:36.350Z,101630.48
2019-02-15T03:54:05.770Z,101632.66
2019-02-15T03:56:40.724Z,101620.34
2019-02-15T03:59:29.281Z,101623.84
2019-02-15T04:01:59.306Z,101616.69
2019-02-15T04:04:28.763Z,101622.16
2019-02-15T04:06:58.266Z,101615.86
2019-02-15T04:09:46.889Z,101618.02
2019-02-15T04:12:16.641Z,101625.02
2019-02-15T04:14:49.403Z,101627.83
2019-02-15T04:17:18.916Z,101615.02
2019-02-15T04:19:48.351Z,101632.80
2019-02-15T04:22:38.168Z,101628.15
2019-02-15T04:25:07.786Z,101640.97
2019-02-15T04:27:37.241Z,101632.63
2019-02-15T04:30:07.511Z,101637.28
2019-02-15T04:32:36.923Z,101637.00
2019-02-15T04:35:07.582Z,101630.55
2019-02-15T04:37:37.050Z,101628.92
2019-02-15T04:46:17.249Z,101641.45
2019-02-15T04:49:05.786Z,101646.92
2019-02-15T04:51:35.217Z,101658.55
2019-02-15T04:54:23.529Z,101657.02
2019-02-15T04:57:00.759Z,101672.63
2019-02-15T04:59:30.350Z,101665.00
2019-02-15T05:01:59.887Z,101666.18
2019-02-15T05:04:40.518Z,101665.00
2019-02-15T05:07:10.002Z,101673.47
2019-02-15T05:09:39.408Z,101672.78
2019-02-15T05:12:08.839Z,101666.27
2019-02-15T05:14:55.138Z,101664.91
2019-02-15T05:17:24.662Z,101655.73
2019-02-15T05:19:54.071Z,101636.48
2019-02-15T05:22:23.678Z,101649.27
2019-02-15T05:24:53.612Z,101675.55
2019-02-15T05:27:23.434Z,101672.41
2019-02-15T05:30:13.918Z,101671.88
2019-02-15T05:32:45.262Z,101678.09
2019-02-15T05:35:14.689Z,101668.64
2019-02-15T05:37:44.188Z,101670.95
2019-02-15T05:40:13.744Z,101673.91
2019-02-15T05:42:43.139Z,101671.94
2019-02-15T05:45:12.739Z,101692.73
2019-02-15T05:47:42.280Z,101681.11
2019-02-15T05:50:11.669Z,101687.27
2019-02-15T05:52:55.586Z,101688.25
2019-02-15T05:55:12.697Z,101676.77
2019-02-15T05:57:42.127Z,101671.09
2019-02-15T06:00:11.581Z,101669.07
2019-02-15T06:02:41.028Z,101683.71
2019-02-15T06:05:10.520Z,101693.16
2019-02-15T06:07:39.984Z,101686.20
2019-02-15T06:10:09.570Z,101692.99
2019-02-15T06:12:39.016Z,101691.83
2019-02-15T06:15:15.115Z,101694.67
2019-02-15T06:17:39.579Z,101692.50
2019-02-15T06:20:09.158Z,101688.37
2019-02-15T06:22:38.669Z,101695.83
2019-02-15T06:25:08.227Z,101695.02
2019-02-15T06:27:37.581Z,101699.50
2019-02-15T06:30:08.226Z,101678.84
2019-02-15T06:32:37.631Z,101683.33
2019-02-15T06:35:18.157Z,101676.97
2019-02-15T06:37:47.796Z,101671.64
2019-02-15T06:40:17.344Z,101669.33
2019-02-15T06:42:47.084Z,101673.12
2019-02-15T06:45:25.088Z,101676.27
2019-02-15T06:50:27.412Z,101658.62
2019-02-15T06:52:56.940Z,101660.31
2019-02-15T06:55:26.331Z,101651.83
2019-02-15T06:57:55.758Z,101662.97
2019-02-15T07:03:51.429Z,101678.44
2019-02-15T07:06:21.614Z,101688.94
2019-02-15T07:08:51.531Z,101691.45
2019-02-15T07:11:21.429Z,101691.31
2019-02-15T07:13:53.239Z,101689.84
2019-02-15T07:16:22.826Z,101695.66
2019-02-15T07:18:52.692Z,101697.33
2019-02-15T07:21:22.574Z,101695.33
2019-02-15T07:23:54.243Z,101701.00
2019-02-15T07:26:23.840Z,101703.17
2019-02-15T07:29:32.819Z,101702.39
2019-02-15T07:32:02.341Z,101705.47
2019-02-15T07:37:20.296Z,101722.94
2019-02-15T07:39:50.193Z,101730.92
2019-02-15T07:42:38.582Z,101738.42
2019-02-15T07:45:09.220Z,101726.78
2019-02-15T07:47:38.937Z,101737.35
2019-02-15T07:50:10.841Z,101732.44
2019-02-15T07:52:40.265Z,101743.46
2019-02-15T07:55:09.694Z,101744.07
2019-02-15T07:57:39.228Z,101739.09
2019-02-15T08:00:10.807Z,101742.91
2019-02-15T08:02:40.231Z,101736.11
2019-02-15T08:07:44.948Z,101734.91
2019-02-15T08:12:59.943Z,101722.98
2019-02-15T08:15:41.120Z,101715.34
2019-02-15T08:18:10.596Z,101719.19
2019-02-15T08:20:40.029Z,101734.04
2019-02-15T08:23:09.437Z,101730.24
2019-02-15T08:25:38.958Z,101722.47
2019-02-15T08:28:08.361Z,101723.16
2019-02-15T08:30:37.868Z,101719.46
2019-02-15T08:33:07.351Z,101720.98
2019-02-15T08:35:36.765Z,101712.30
2019-02-15T08:38:06.231Z,101715.37
2019-02-15T08:40:37.379Z,101715.22
2019-02-15T08:46:03.349Z,101716.50
2019-02-15T08:48:32.332Z,101711.87
2019-02-15T08:51:01.751Z,101723.16
2019-02-15T08:53:33.449Z,101726.52
2019-02-15T08:56:02.949Z,101724.71
2019-02-15T08:58:32.439Z,101736.60
2019-02-15T09:01:21.427Z,101729.45
2019-02-15T09:03:51.018Z,101726.98
2019-02-15T09:06:22.362Z,101723.83
2019-02-15T09:11:28.247Z,101720.02
2019-02-15T09:16:38.244Z,101730.84
2019-02-15T09:19:10.654Z,101730.55
2019-02-15T09:21:40.304Z,101725.12
2019-02-15T09:24:12.648Z,101727.44
2019-02-15T09:26:42.072Z,101727.80
2019-02-15T09:29:11.574Z,101723.84
2019-02-15T09:31:41.088Z,101724.23
2019-02-15T09:34:10.560Z,101719.90
2019-02-15T09:36:40.035Z,101714.95
2019-02-15T09:39:09.518Z,101715.03
2019-02-15T09:41:39.047Z,101712.22
2019-02-15T09:44:27.496Z,101711.77
2019-02-15T09:46:57.222Z,101710.14
2019-02-15T09:49:26.609Z,101714.17
2019-02-15T09:51:56.062Z,101713.22
2019-02-15T09:54:25.461Z,101712.08
2019-02-15T09:56:54.829Z,101715.44
2019-02-15T09:59:24.348Z,101696.95
2019-02-15T10:02:12.660Z,101707.92
2019-02-15T10:04:42.217Z,101702.94
2019-02-15T10:07:11.685Z,101685.06
2019-02-15T10:09:41.171Z,101683.23
2019-02-15T10:12:10.600Z,101681.05
2019-02-15T10:14:39.993Z,101684.52
2019-02-15T10:17:09.409Z,101677.33
2019-02-15T10:19:39.380Z,101675.84
2019-02-15T10:22:08.930Z,101672.52
2019-02-15T10:24:38.342Z,101677.67
2019-02-15T10:27:07.786Z,101676.18
2019-02-15T10:29:37.204Z,101669.20
2019-02-15T10:32:06.598Z,101675.07
2019-02-15T10:34:36.132Z,101675.30
2019-02-15T10:37:07.488Z,101679.48
2019-02-15T10:39:36.919Z,101685.16
2019-02-15T10:42:06.423Z,101681.72
2019-02-15T10:44:35.892Z,101682.05
2019-02-15T10:47:13.618Z,101680.09
2019-02-15T10:49:36.764Z,101682.27
2019-02-15T10:52:06.375Z,101676.80
2019-02-15T10:54:35.776Z,101673.15
2019-02-15T10:57:05.268Z,101673.52
2019-02-15T10:59:34.729Z,101673.86
2019-02-15T11:02:04.179Z,101666.04
2019-02-15T11:04:33.694Z,101670.91
2019-02-15T11:07:03.094Z,101672.44
2019-02-15T11:09:32.497Z,101667.73
2019-02-15T11:12:01.983Z,101659.24
2019-02-15T11:14:31.474Z,101667.77
2019-02-15T11:17:03.057Z,101669.27
2019-02-15T11:19:32.162Z,101672.64
2019-02-15T11:22:02.170Z,101674.98
2019-02-15T11:24:31.675Z,101670.63
2019-02-15T11:27:01.185Z,101669.45
2019-02-15T11:29:30.591Z,101668.81
2019-02-15T11:31:59.992Z,101667.81
2019-02-15T11:37:04.559Z,101663.11
2019-02-15T11:39:34.087Z,101659.61
2019-02-15T11:42:03.697Z,101659.61
2019-02-15T11:44:33.141Z,101667.81
2019-02-15T11:47:02.607Z,101662.62
2019-02-15T11:49:32.082Z,101662.80
2019-02-15T11:52:03.751Z,101665.78
2019-02-15T11:54:33.160Z,101666.78
2019-02-15T11:57:02.587Z,101659.61
2019-02-15T11:59:32.601Z,101656.45
2019-02-15T12:02:06.101Z,101656.94
2019-02-15T12:04:34.887Z,101653.44
2019-02-15T12:07:04.311Z,101654.47
2019-02-15T12:09:33.830Z,101656.97
2019-02-15T12:12:17.463Z,101652.62
2019-02-15T12:14:34.863Z,101648.28
2019-02-15T12:19:58.333Z,101645.27
2019-02-15T12:22:38.937Z,101644.44
2019-02-15T12:25:08.507Z,101637.20
2019-02-15T12:27:37.905Z,101641.07
2019-02-15T12:30:08.445Z,101639.39
2019-02-15T12:32:37.939Z,101634.88
2019-02-15T12:35:07.829Z,101627.18
2019-02-15T12:37:37.330Z,101617.66
2019-02-15T12:40:07.164Z,101620.84
2019-02-15T12:42:36.567Z,101623.16
2019-02-15T12:45:06.460Z,101607.16
2019-02-15T12:47:35.842Z,101611.17
2019-02-15T12:50:06.366Z,101614.18
2019-02-15T12:52:36.025Z,101614.02
2019-02-15T12:55:05.538Z,101614.68
2019-02-15T12:57:35.005Z,101606.63
2019-02-15T13:00:05.266Z,101607.45
2019-02-15T13:02:34.697Z,101610.30
2019-02-15T13:05:04.197Z,101610.46
2019-02-15T13:07:53.525Z,101609.80
2019-02-15T13:13:20.530Z,101612.67
2019-02-15T13:16:10.780Z,101608.33
2019-02-15T13:18:40.387Z,101598.42
2019-02-15T13:21:09.833Z,101597.95
2019-02-15T13:23:39.225Z,101588.40
2019-02-15T13:26:09.038Z,101589.56
2019-02-15T13:28:38.480Z,101587.89
2019-02-15T13:31:07.829Z,101582.58
2019-02-15T13:33:37.259Z,101588.25
2019-02-15T13:36:07.069Z,101581.23
2019-02-15T13:38:36.447Z,101579.53
2019-02-15T13:41:06.642Z,101567.50
2019-02-15T13:43:58.246Z,101566.00
2019-02-15T13:46:27.889Z,101564.16
2019-02-15T13:48:57.299Z,101568.01
2019-02-15T13:51:26.690Z,101564.83
2019-02-15T13:56:31.580Z,101575.20
2019-02-15T13:59:15.321Z,101563.50
2019-02-15T14:01:44.885Z,101562.66
2019-02-15T14:04:14.352Z,101559.31
2019-02-15T14:07:04.376Z,101552.16
2019-02-15T14:09:33.951Z,101551.16
2019-02-15T14:12:03.349Z,101551.80
2019-02-15T14:14:32.819Z,101557.01
2019-02-15T14:17:02.306Z,101551.16
2019-02-15T14:19:34.467Z,101556.00
2019-02-15T14:22:04.082Z,101550.95
2019-02-15T14:24:33.582Z,101547.61
2019-02-15T14:27:02.991Z,101550.45
2019-02-15T14:29:46.562Z,101547.64
2019-02-15T14:32:15.705Z,101548.78
2019-02-15T14:34:45.260Z,101540.96
2019-02-15T14:37:14.826Z,101542.63
2019-02-15T14:39:44.289Z,101539.63
2019-02-15T14:42:13.808Z,101539.95
2019-02-15T14:44:43.271Z,101536.78
2019-02-15T14:47:12.686Z,101537.45
2019-02-15T14:49:42.249Z,101528.09
2019-02-15T14:52:25.192Z,101526.95
2019-02-15T14:54:54.755Z,101523.10
2019-02-15T14:57:24.323Z,101517.25
2019-02-15T14:59:53.923Z,101518.28
2019-02-15T15:02:23.521Z,101518.28
2019-02-15T15:04:53.058Z,101514.60
2019-02-15T15:07:22.628Z,101512.95
2019-02-15T15:09:52.371Z,101511.61
2019-02-15T15:12:22.011Z,101511.27
2019-02-15T15:14:51.539Z,101508.63
2019-02-15T15:17:21.272Z,101511.80
2019-02-15T15:19:50.777Z,101512.96
2019-02-15T15:22:20.531Z,101510.78
2019-02-15T15:24:52.376Z,101512.97
2019-02-15T15:27:21.780Z,101516.45
2019-02-15T15:29:51.412Z,101509.94
2019-02-15T15:32:21.206Z,101513.28
2019-02-15T15:35:02.877Z,101500.58
2019-02-15T15:37:32.525Z,101502.44
2019-02-15T15:40:01.909Z,101508.08
2019-02-15T15:42:31.801Z,101510.57
2019-02-15T15:45:01.275Z,101514.07
2019-02-15T15:47:33.224Z,101515.55
2019-02-15T15:50:02.545Z,101516.71
2019-02-15T15:52:32.034Z,101510.50
2019-02-15T15:55:01.427Z,101507.16
2019-02-15T15:57:30.854Z,101511.14
2019-02-15T16:00:00.437Z,101507.95
2019-02-15T16:02:29.858Z,101506.41
2019-02-15T16:04:59.273Z,101503.56
2019-02-15T16:07:28.755Z,101493.53
2019-02-15T16:09:58.188Z,101494.95
2019-02-15T16:12:27.606Z,101497.28
2019-02-15T16:14:57.023Z,101492.58
2019-02-15T16:17:29.441Z,101487.56
2019-02-15T16:19:58.894Z,101483.00
2019-02-15T16:22:28.644Z,101486.66
2019-02-15T16:24:58.284Z,101484.77
2019-02-15T16:27:27.765Z,101487.92
2019-02-15T16:29:57.346Z,101488.03
2019-02-15T16:32:26.928Z,101494.16
2019-02-15T16:34:56.325Z,101493.48
2019-02-15T16:37:25.990Z,101490.92
2019-02-15T16:42:48.975Z,101491.87
2019-02-15T16:45:18.443Z,101491.48
2019-02-15T16:47:47.892Z,101487.30
2019-02-15T16:50:17.413Z,101481.47
2019-02-15T16:55:35.357Z,101474.23
2019-02-15T16:58:04.792Z,101468.57
2019-02-15T17:00:34.221Z,101466.06
2019-02-15T17:03:03.622Z,101467.39
2019-02-15T17:05:33.836Z,101467.91
2019-02-15T17:08:03.346Z,101470.05
2019-02-15T17:10:33.211Z,101465.41
2019-02-15T17:13:02.689Z,101466.24
2019-02-15T17:15:51.073Z,101462.25
2019-02-15T17:18:20.780Z,101461.06
2019-02-15T17:20:50.235Z,101460.72
2019-02-15T17:25:54.920Z,101458.36
2019-02-15T17:28:30.936Z,101458.52
2019-02-15T17:31:00.332Z,101458.32
2019-02-15T17:33:30.194Z,101459.31
2019-02-15T17:35:59.678Z,101461.81
2019-02-15T17:38:29.131Z,101468.95
2019-02-15T17:40:58.571Z,101461.42
2019-02-15T17:43:28.807Z,101461.56
2019-02-15T17:46:12.405Z,101461.03
2019-02-15T17:48:29.530Z,101453.38
2019-02-15T17:50:58.946Z,101452.69
2019-02-15T17:53:28.660Z,101451.16
2019-02-15T17:55:58.125Z,101442.34
2019-02-15T17:58:27.588Z,101440.33
2019-02-15T18:00:57.268Z,101443.48
2019-02-15T18:03:27.061Z,101448.95
2019-02-15T18:05:56.615Z,101446.93
2019-02-15T18:08:26.042Z,101440.77
2019-02-15T18:10:55.835Z,101437.80
2019-02-15T18:13:27.227Z,101435.63
2019-02-15T18:15:56.662Z,101434.95
2019-02-15T18:18:26.146Z,101437.95
2019-02-15T18:20:55.698Z,101431.64
2019-02-15T18:23:25.117Z,101432.48
2019-02-15T18:25:54.810Z,101435.29
2019-02-15T18:28:24.392Z,101428.30
2019-02-15T18:30:54.075Z,101427.61
2019-02-15T18:33:23.509Z,101426.92
2019-02-15T18:35:53.058Z,101420.08
2019-02-15T18:38:41.742Z,101418.74
2019-02-15T18:41:13.577Z,101425.88
2019-02-15T18:43:42.549Z,101419.22
2019-02-15T18:46:11.921Z,101420.50
2019-02-15T18:48:41.401Z,101412.47
2019-02-15T18:51:10.835Z,101413.61
2019-02-15T18:53:40.233Z,101404.43
2019-02-15T18:56:09.634Z,101403.55
2019-02-15T18:58:39.122Z,101398.17
2019-02-15T19:01:08.827Z,101391.52
2019-02-15T19:03:41.936Z,101387.81
2019-02-15T19:06:11.376Z,101388.45
2019-02-15T19:08:40.833Z,101388.41
2019-02-15T19:11:10.553Z,101389.56
2019-02-15T19:13:40.010Z,101389.02
2019-02-15T19:16:09.459Z,101391.83
2019-02-15T19:18:39.024Z,101394.28
2019-02-15T19:21:08.656Z,101382.27
2019-02-15T19:23:38.063Z,101377.97
2019-02-15T19:26:07.713Z,101379.94
2019-02-15T19:28:37.140Z,101374.92
2019-02-15T19:31:06.572Z,101371.22
2019-02-15T19:33:48.086Z,101374.52
2019-02-15T19:39:07.390Z,101374.78
2019-02-15T19:41:36.869Z,101378.36
2019-02-15T19:44:06.277Z,101377.33
2019-02-15T19:46:35.847Z,101374.30
2019-02-15T19:49:05.259Z,101366.27
2019-02-15T19:51:35.922Z,101363.41
2019-02-15T19:56:53.370Z,101356.65
2019-02-15T19:59:23.115Z,101353.59
2019-02-15T20:01:53.170Z,101351.40
2019-02-15T20:04:22.755Z,101352.66
2019-02-15T20:06:52.449Z,101351.77
2019-02-15T20:09:22.147Z,101348.91
2019-02-15T20:11:54.892Z,101345.58
2019-02-15T20:14:24.405Z,101344.69
2019-02-15T20:16:54.019Z,101338.48
2019-02-15T20:19:23.530Z,101342.56
2019-02-15T20:21:53.413Z,101339.01
2019-02-15T20:24:23.533Z,101334.61
2019-02-15T20:26:53.154Z,101324.45
2019-02-15T20:29:22.730Z,101320.77
2019-02-15T20:31:52.332Z,101323.34
2019-02-15T20:34:22.587Z,101324.15
2019-02-15T20:36:52.348Z,101328.27
2019-02-15T20:39:23.880Z,101321.77
2019-02-15T20:41:53.370Z,101318.22
2019-02-15T20:44:23.455Z,101324.02
2019-02-15T20:46:53.086Z,101317.03
2019-02-15T20:49:22.805Z,101322.13
2019-02-15T20:51:52.403Z,101321.11
2019-02-15T20:54:25.026Z,101313.16
2019-02-15T20:56:54.405Z,101313.16
2019-02-15T20:59:27.195Z,101312.84
2019-02-15T21:04:50.643Z,101318.14
2019-02-15T21:07:20.052Z,101317.09
2019-02-15T21:09:49.456Z,101317.09
2019-02-15T21:12:18.895Z,101315.17
2019-02-15T21:17:36.786Z,101310.30
2019-02-15T21:20:08.220Z,101315.67
2019-02-15T21:22:38.215Z,101312.22
2019-02-15T21:25:27.915Z,101311.09
2019-02-15T21:27:57.342Z,101310.95
2019-02-15T21:30:26.805Z,101307.19
2019-02-15T21:32:56.405Z,101304.39
2019-02-15T21:35:25.890Z,101305.58
2019-02-15T21:37:55.237Z,101299.44
2019-02-15T21:40:26.796Z,101301.11
2019-02-15T21:42:56.276Z,101297.13
2019-02-15T21:45:27.320Z,101293.30
2019-02-15T21:47:56.854Z,101292.45
2019-02-15T21:50:26.278Z,101287.09
2019-02-15T21:52:55.774Z,101268.42
2019-02-15T21:55:25.234Z,101279.20
2019-02-15T21:58:01.132Z,101262.08
2019-02-15T22:00:37.268Z,101270.17
2019-02-15T22:03:06.696Z,101265.84
2019-02-15T22:05:36.094Z,101264.59
2019-02-15T22:08:05.514Z,101264.77
2019-02-15T22:10:44.509Z,101264.77
2019-02-15T22:13:14.074Z,101256.88
2019-02-15T22:15:43.608Z,101254.72
2019-02-15T22:18:26.804Z,101254.02
2019-02-15T22:20:44.383Z,101256.32
2019-02-15T22:23:14.068Z,101254.47
2019-02-15T22:25:43.993Z,101253.63
2019-02-15T22:31:06.928Z,101237.24
2019-02-15T22:33:36.666Z,101237.24
2019-02-15T22:39:06.571Z,101235.39
2019-02-15T22:44:39.386Z,101231.34
2019-02-15T22:47:19.906Z,101218.16
2019-02-15T22:49:49.332Z,101218.16
2019-02-15T22:52:37.847Z,101216.56
2019-02-15T22:55:20.101Z,101203.10
2019-02-15T22:57:49.516Z,101203.10
2019-02-15T23:01:02.767Z,101212.86
2019-02-15T23:03:36.304Z,101196.72
2019-02-15T23:06:24.862Z,101197.91
2019-02-15T23:08:54.542Z,101197.91
2019-02-15T23:11:41.006Z,101198.88
2019-02-15T23:14:10.581Z,101200.48
2019-02-15T23:16:40.043Z,101188.48
2019-02-15T23:19:38.279Z,101187.75
2019-02-15T23:22:04.900Z,101187.75
2019-02-15T23:24:34.357Z,101193.27
2019-02-15T23:27:03.741Z,101188.77
2019-02-15T23:29:33.768Z,101190.75
2019-02-15T23:32:03.199Z,101189.56
2019-02-15T23:34:35.135Z,101172.00
2019-02-15T23:37:04.566Z,101172.00
2019-02-15T23:39:54.099Z,101177.16
2019-02-15T23:45:36.911Z,101166.11
2019-02-15T23:48:17.634Z,101159.00
2019-02-15T23:53:42.912Z,101164.58
2019-02-15T23:56:12.606Z,101149.66
2019-02-15T23:58:42.073Z,101149.86
